createdAt,value
2023-05-10T00:00:58.232Z,100906.28
2023-05-10T00:03:25.559Z,100898.50
2023-05-10T00:05:52.804Z,100900.28
2023-05-10T00:08:20.071Z,100903.25
2023-05-10T00:10:47.139Z,100904.72
2023-05-10T00:13:14.477Z,100902.38
2023-05-10T00:15:41.618Z,100893.09
2023-05-10T00:18:08.980Z,100914.34
2023-05-10T00:20:36.227Z,100908.81
2023-05-10T00:23:03.381Z,100908.09
2023-05-10T00:25:30.426Z,100906.97
2023-05-10T00:27:58.354Z,100908.06
2023-05-10T00:30:25.678Z,100904.44
2023-05-10T00:32:53.102Z,100905.19
2023-05-10T00:35:20.517Z,100900.88
2023-05-10T00:37:48.910Z,100898.09
2023-05-10T00:40:16.313Z,100908.66
2023-05-10T00:42:47.699Z,100897.81
2023-05-10T00:45:14.864Z,100894.88
2023-05-10T00:47:42.117Z,100904.19
2023-05-10T00:50:10.365Z,100918.59
2023-05-10T00:52:37.555Z,100911.94
2023-05-10T00:55:23.891Z,100916.38
2023-05-10T00:57:51.455Z,100907.75
2023-05-10T01:00:19.743Z,100882.19
2023-05-10T01:02:47.862Z,100905.00
2023-05-10T01:05:15.181Z,100901.41
2023-05-10T01:07:42.390Z,100903.28
2023-05-10T01:10:11.643Z,100901.75
2023-05-10T01:12:41.813Z,100903.75
2023-05-10T01:15:11.965Z,100903.34
2023-05-10T01:17:42.024Z,100901.41
2023-05-10T01:20:11.303Z,100904.13
2023-05-10T01:22:56.779Z,100907.38
2023-05-10T01:25:48.696Z,100903.72
2023-05-10T01:28:46.668Z,100902.53
2023-05-10T01:31:44.424Z,100889.91
2023-05-10T01:34:19.813Z,100901.84
2023-05-10T01:36:52.377Z,100894.59
2023-05-10T01:39:31.440Z,100896.44
2023-05-10T01:42:09.321Z,100893.56
2023-05-10T01:44:51.531Z,100895.00
2023-05-10T01:47:26.628Z,100892.53
2023-05-10T01:49:56.459Z,100885.88
2023-05-10T01:52:51.167Z,100895.31
2023-05-10T01:55:22.146Z,100894.44
2023-05-10T01:58:00.057Z,100890.94
2023-05-10T02:00:28.326Z,100891.63
2023-05-10T02:02:56.536Z,100892.44
2023-05-10T02:05:25.358Z,100889.97
2023-05-10T02:07:54.116Z,100890.28
2023-05-10T02:10:22.044Z,100888.38
2023-05-10T02:12:50.527Z,100887.53
2023-05-10T02:15:22.420Z,100885.63
2023-05-10T02:17:50.849Z,100880.34
2023-05-10T02:20:20.284Z,100875.59
2023-05-10T02:22:51.818Z,100880.88
2023-05-10T02:25:20.480Z,100879.78
2023-05-10T02:27:49.408Z,100869.50
2023-05-10T02:30:18.088Z,100884.22
2023-05-10T02:32:46.204Z,100876.56
2023-05-10T02:35:13.985Z,100879.22
2023-05-10T02:37:43.098Z,100880.06
2023-05-10T02:40:12.129Z,100881.19
2023-05-10T02:42:43.436Z,100870.63
2023-05-10T02:45:14.543Z,100876.31
2023-05-10T02:47:44.846Z,100851.97
2023-05-10T02:50:12.469Z,100877.28
2023-05-10T02:52:48.799Z,100872.25
2023-05-10T02:55:17.982Z,100874.22
2023-05-10T02:57:52.056Z,100872.25
2023-05-10T03:00:19.513Z,100861.72
2023-05-10T03:02:46.613Z,100875.09
2023-05-10T03:05:13.721Z,100873.13
2023-05-10T03:07:40.903Z,100855.59
2023-05-10T03:10:09.017Z,100873.97
2023-05-10T03:12:56.890Z,100877.03
2023-05-10T03:15:30.296Z,100870.47
2023-05-10T03:18:10.748Z,100870.91
2023-05-10T03:20:49.530Z,100859.78
2023-05-10T03:23:25.416Z,100863.13
2023-05-10T03:25:53.463Z,100853.13
2023-05-10T03:28:22.190Z,100866.16
2023-05-10T03:30:50.870Z,100872.00
2023-05-10T03:33:18.085Z,100866.28
2023-05-10T03:35:47.397Z,100860.03
2023-05-10T03:38:15.484Z,100864.63
2023-05-10T03:40:42.571Z,100869.22
2023-05-10T03:43:09.689Z,100869.47
2023-05-10T03:45:37.371Z,100868.06
2023-05-10T03:48:05.252Z,100857.78
2023-05-10T03:50:32.469Z,100860.97
2023-05-10T03:52:59.551Z,100861.38
2023-05-10T03:55:28.192Z,100866.09
2023-05-10T03:57:55.361Z,100862.19
2023-05-10T04:00:23.505Z,100858.56
2023-05-10T04:02:54.609Z,100861.22
2023-05-10T04:05:21.805Z,100857.47
2023-05-10T04:07:50.402Z,100860.78
2023-05-10T04:10:18.098Z,100858.00
2023-05-10T04:12:47.104Z,100864.84
2023-05-10T04:15:14.488Z,100852.13
2023-05-10T04:17:41.718Z,100858.69
2023-05-10T04:20:09.521Z,100859.63
2023-05-10T04:22:36.902Z,100860.13
2023-05-10T04:25:04.269Z,100850.97
2023-05-10T04:27:32.217Z,100855.94
2023-05-10T04:29:59.440Z,100853.69
2023-05-10T04:32:26.594Z,100862.69
2023-05-10T04:34:54.192Z,100853.63
2023-05-10T04:37:22.485Z,100838.28
2023-05-10T04:39:49.591Z,100843.78
2023-05-10T04:42:16.758Z,100849.03
2023-05-10T04:44:44.732Z,100840.16
2023-05-10T04:47:12.936Z,100842.59
2023-05-10T04:49:40.289Z,100840.16
2023-05-10T04:52:07.408Z,100835.00
2023-05-10T04:54:35.609Z,100843.31
2023-05-10T04:57:02.658Z,100844.53
2023-05-10T04:59:29.708Z,100846.38
2023-05-10T05:01:56.849Z,100836.53
2023-05-10T05:04:25.163Z,100840.84
2023-05-10T05:06:53.929Z,100837.16
2023-05-10T05:09:21.376Z,100829.16
2023-05-10T05:11:48.558Z,100815.13
2023-05-10T05:14:15.698Z,100825.84
2023-05-10T05:16:42.855Z,100823.44
2023-05-10T05:19:09.984Z,100821.13
2023-05-10T05:21:37.276Z,100810.03
2023-05-10T05:24:04.858Z,100815.38
2023-05-10T05:26:31.964Z,100818.47
2023-05-10T05:28:59.025Z,100811.91
2023-05-10T05:31:26.203Z,100809.00
2023-05-10T05:33:53.473Z,100802.06
2023-05-10T05:36:20.582Z,100802.03
2023-05-10T05:38:47.706Z,100811.06
2023-05-10T05:41:14.956Z,100806.38
2023-05-10T05:43:42.048Z,100805.31
2023-05-10T05:46:09.206Z,100798.38
2023-05-10T05:48:36.552Z,100800.47
2023-05-10T05:51:05.147Z,100794.81
2023-05-10T05:53:33.684Z,100799.88
2023-05-10T05:56:00.794Z,100802.47
2023-05-10T05:58:28.034Z,100792.13
2023-05-10T06:00:55.221Z,100790.44
2023-05-10T06:03:22.525Z,100776.22
2023-05-10T06:05:49.806Z,100797.59
2023-05-10T06:08:16.899Z,100798.78
2023-05-10T06:10:44.286Z,100799.97
2023-05-10T06:13:11.843Z,100792.06
2023-05-10T06:15:39.421Z,100795.06
2023-05-10T06:18:07.250Z,100796.41
2023-05-10T06:20:34.513Z,100781.81
2023-05-10T06:23:01.761Z,100793.53
2023-05-10T06:25:29.086Z,100789.44
2023-05-10T06:27:58.871Z,100792.22
2023-05-10T06:30:29.875Z,100783.06
2023-05-10T06:32:58.242Z,100790.09
2023-05-10T06:35:25.786Z,100781.78
2023-05-10T06:37:53.356Z,100784.13
2023-05-10T06:40:20.777Z,100783.66
2023-05-10T06:42:49.139Z,100773.34
2023-05-10T06:45:17.125Z,100779.97
2023-05-10T06:47:44.762Z,100781.47
2023-05-10T06:50:12.831Z,100758.25
2023-05-10T06:52:40.339Z,100777.84
2023-05-10T06:55:09.427Z,100768.22
2023-05-10T06:57:36.592Z,100773.50
2023-05-10T07:00:08.017Z,100761.19
2023-05-10T07:02:35.425Z,100774.50
2023-05-10T07:05:03.649Z,100772.31
2023-05-10T07:07:32.656Z,100780.38
2023-05-10T07:09:59.898Z,100770.63
2023-05-10T07:12:27.220Z,100753.53
2023-05-10T07:14:54.558Z,100765.50
2023-05-10T07:17:21.683Z,100769.78
2023-05-10T07:19:48.827Z,100764.97
2023-05-10T07:22:16.558Z,100761.47
2023-05-10T07:24:43.927Z,100744.69
2023-05-10T07:27:11.018Z,100762.59
2023-05-10T07:29:38.611Z,100756.34
2023-05-10T07:32:06.973Z,100757.69
2023-05-10T07:34:34.189Z,100756.19
2023-05-10T07:37:01.913Z,100747.63
2023-05-10T07:39:29.126Z,100753.19
2023-05-10T07:41:56.909Z,100746.00
2023-05-10T07:44:24.493Z,100746.97
2023-05-10T07:46:51.863Z,100756.78
2023-05-10T07:49:19.079Z,100739.97
2023-05-10T07:51:46.224Z,100736.81
2023-05-10T07:54:13.838Z,100739.22
2023-05-10T07:56:46.064Z,100741.28
2023-05-10T07:59:17.023Z,100742.63
2023-05-10T08:01:44.639Z,100735.09
2023-05-10T08:04:12.699Z,100738.91
2023-05-10T08:06:40.751Z,100735.31
2023-05-10T08:09:08.106Z,100732.72
2023-05-10T08:11:35.471Z,100730.41
2023-05-10T08:14:02.840Z,100720.09
2023-05-10T08:16:30.167Z,100729.03
2023-05-10T08:18:57.493Z,100715.06
2023-05-10T08:21:24.695Z,100707.84
2023-05-10T08:23:51.904Z,100712.03
2023-05-10T08:26:19.014Z,100712.88
2023-05-10T08:28:46.120Z,100699.41
2023-05-10T08:31:13.289Z,100703.56
2023-05-10T08:33:42.168Z,100705.63
2023-05-10T08:36:10.210Z,100705.66
2023-05-10T08:38:38.684Z,100703.66
2023-05-10T08:41:07.244Z,100703.06
2023-05-10T08:43:37.733Z,100713.34
2023-05-10T08:46:06.599Z,100713.34
2023-05-10T08:48:35.906Z,100701.66
2023-05-10T08:51:04.825Z,100693.06
2023-05-10T08:53:36.480Z,100690.28
2023-05-10T08:56:04.758Z,100693.69
2023-05-10T08:58:32.239Z,100695.16
2023-05-10T09:01:00.483Z,100672.50
2023-05-10T09:03:27.860Z,100683.81
2023-05-10T09:05:56.914Z,100672.66
2023-05-10T09:08:27.900Z,100665.03
2023-05-10T09:10:58.151Z,100663.78
2023-05-10T09:13:26.199Z,100663.13
2023-05-10T09:15:54.824Z,100665.16
2023-05-10T09:18:22.002Z,100655.94
2023-05-10T09:20:50.292Z,100664.31
2023-05-10T09:23:17.529Z,100657.88
2023-05-10T09:25:44.557Z,100653.19
2023-05-10T09:28:12.951Z,100660.44
2023-05-10T09:30:40.507Z,100652.34
2023-05-10T09:33:08.133Z,100657.41
2023-05-10T09:35:35.427Z,100650.25
2023-05-10T09:38:05.299Z,100644.44
2023-05-10T09:40:33.034Z,100648.94
2023-05-10T09:43:07.009Z,100643.00
2023-05-10T09:45:38.298Z,100650.00
2023-05-10T09:48:07.167Z,100642.91
2023-05-10T09:50:35.379Z,100634.56
2023-05-10T09:53:04.956Z,100644.31
2023-05-10T09:55:45.904Z,100628.53
2023-05-10T09:58:15.346Z,100630.75
2023-05-10T10:00:53.266Z,100626.50
2023-05-10T10:03:23.844Z,100628.53
2023-05-10T10:05:51.463Z,100618.00
2023-05-10T10:08:18.808Z,100614.84
2023-05-10T10:10:47.261Z,100603.34
2023-05-10T10:13:16.826Z,100604.09
2023-05-10T10:15:45.675Z,100598.16
2023-05-10T10:18:18.417Z,100601.59
2023-05-10T10:20:46.728Z,100598.84
2023-05-10T10:23:15.872Z,100599.88
2023-05-10T10:25:46.370Z,100603.19
2023-05-10T10:28:48.449Z,100604.09
2023-05-10T10:31:32.527Z,100603.09
2023-05-10T10:34:05.013Z,100591.03
2023-05-10T10:36:34.349Z,100601.06
2023-05-10T10:39:03.971Z,100590.13
2023-05-10T10:41:35.088Z,100590.78
2023-05-10T10:44:24.716Z,100583.03
2023-05-10T10:47:25.253Z,100590.72
2023-05-10T10:49:55.660Z,100591.50
2023-05-10T10:52:31.074Z,100578.06
2023-05-10T10:55:07.276Z,100583.53
2023-05-10T10:58:01.183Z,100574.31
2023-05-10T11:00:37.414Z,100580.75
2023-05-10T11:03:09.604Z,100576.34
2023-05-10T11:05:44.642Z,100577.75
2023-05-10T11:08:17.793Z,100578.81
2023-05-10T11:11:09.994Z,100565.38
2023-05-10T11:13:46.670Z,100565.00
2023-05-10T11:16:16.874Z,100558.63
2023-05-10T11:19:00.991Z,100561.41
2023-05-10T11:21:28.273Z,100562.25
2023-05-10T11:23:57.754Z,100558.22
2023-05-10T11:26:36.303Z,100556.25
2023-05-10T11:29:05.577Z,100537.56
2023-05-10T11:31:32.973Z,100543.25
2023-05-10T11:34:02.873Z,100544.69
2023-05-10T11:36:37.450Z,100541.84
2023-05-10T11:39:06.419Z,100541.19
2023-05-10T11:41:34.009Z,100547.31
2023-05-10T11:44:01.176Z,100540.94
2023-05-10T11:46:29.628Z,100551.50
2023-05-10T11:49:02.951Z,100539.41
2023-05-10T11:51:30.315Z,100534.94
2023-05-10T11:53:58.255Z,100539.50
2023-05-10T11:56:27.370Z,100538.72
2023-05-10T11:58:57.051Z,100539.34
2023-05-10T12:01:26.234Z,100536.97
2023-05-10T12:03:55.321Z,100517.16
2023-05-10T12:06:22.973Z,100519.59
2023-05-10T12:08:54.786Z,100514.50
2023-05-10T12:11:26.638Z,100518.34
2023-05-10T12:13:54.823Z,100514.97
2023-05-10T12:16:26.738Z,100505.13
2023-05-10T12:18:56.916Z,100516.63
2023-05-10T12:21:25.527Z,100507.75
2023-05-10T12:23:59.991Z,100510.53
2023-05-10T12:26:30.145Z,100507.31
2023-05-10T12:29:14.102Z,100514.84
2023-05-10T12:31:51.576Z,100498.88
2023-05-10T12:34:32.653Z,100488.00
2023-05-10T12:37:00.052Z,100516.28
2023-05-10T12:39:27.780Z,100510.13
2023-05-10T12:41:54.897Z,100497.78
2023-05-10T12:44:22.046Z,100502.81
2023-05-10T12:46:49.165Z,100493.03
2023-05-10T12:49:16.471Z,100501.03
2023-05-10T12:51:43.840Z,100504.94
2023-05-10T12:54:10.973Z,100503.31
2023-05-10T12:56:38.214Z,100499.72
2023-05-10T12:59:05.728Z,100491.38
2023-05-10T13:01:32.942Z,100494.25
2023-05-10T13:04:01.233Z,100495.00
2023-05-10T13:06:28.366Z,100493.00
2023-05-10T13:08:55.596Z,100504.25
2023-05-10T13:11:22.774Z,100504.91
2023-05-10T13:13:49.872Z,100501.59
2023-05-10T13:16:17.362Z,100490.19
2023-05-10T13:18:44.553Z,100490.19
2023-05-10T13:21:12.395Z,100492.22
2023-05-10T13:23:39.484Z,100500.28
2023-05-10T13:26:06.625Z,100498.72
2023-05-10T13:28:33.703Z,100489.31
2023-05-10T13:31:01.168Z,100490.84
2023-05-10T13:33:28.328Z,100490.09
2023-05-10T13:35:55.922Z,100500.09
2023-05-10T13:38:23.165Z,100486.75
2023-05-10T13:40:53.767Z,100484.13
2023-05-10T13:43:21.214Z,100486.38
2023-05-10T13:45:48.513Z,100487.28
2023-05-10T13:48:15.757Z,100483.34
2023-05-10T13:50:44.322Z,100478.53
2023-05-10T13:53:11.408Z,100479.78
2023-05-10T13:55:38.520Z,100473.69
2023-05-10T13:58:05.732Z,100477.19
2023-05-10T14:00:33.041Z,100472.19
2023-05-10T14:03:00.300Z,100477.97
2023-05-10T14:05:28.032Z,100483.25
2023-05-10T14:07:55.380Z,100483.00
2023-05-10T14:10:22.724Z,100465.63
2023-05-10T14:12:51.350Z,100473.44
2023-05-10T14:15:18.817Z,100473.69
2023-05-10T14:17:46.247Z,100478.66
2023-05-10T14:20:13.384Z,100471.41
2023-05-10T14:22:41.543Z,100469.00
2023-05-10T14:25:09.595Z,100472.72
2023-05-10T14:27:36.723Z,100469.22
2023-05-10T14:30:04.143Z,100467.72
2023-05-10T14:32:33.320Z,100466.06
2023-05-10T14:35:00.865Z,100471.72
2023-05-10T14:37:28.093Z,100467.59
2023-05-10T14:39:55.237Z,100468.72
2023-05-10T14:42:22.442Z,100473.31
2023-05-10T14:44:49.784Z,100467.31
2023-05-10T14:47:16.887Z,100467.59
2023-05-10T14:49:43.972Z,100463.00
2023-05-10T14:52:13.412Z,100461.28
2023-05-10T14:54:41.358Z,100461.75
2023-05-10T14:57:08.528Z,100454.78
2023-05-10T14:59:35.768Z,100455.66
2023-05-10T15:02:04.265Z,100452.09
2023-05-10T15:04:31.981Z,100455.47
2023-05-10T15:07:00.565Z,100437.13
2023-05-10T15:09:28.838Z,100457.78
2023-05-10T15:11:56.876Z,100444.72
2023-05-10T15:14:24.404Z,100449.97
2023-05-10T15:16:51.516Z,100454.72
2023-05-10T15:19:18.682Z,100435.22
2023-05-10T15:21:46.151Z,100449.81
2023-05-10T15:24:13.369Z,100449.50
2023-05-10T15:26:40.495Z,100442.56
2023-05-10T15:29:07.649Z,100452.34
2023-05-10T15:31:37.689Z,100447.59
2023-05-10T15:34:04.925Z,100452.44
2023-05-10T15:36:33.218Z,100442.53
2023-05-10T15:39:00.611Z,100437.25
2023-05-10T15:41:27.907Z,100446.59
2023-05-10T15:43:55.222Z,100447.19
2023-05-10T15:46:22.688Z,100445.53
2023-05-10T15:48:50.005Z,100444.59
2023-05-10T15:51:17.153Z,100429.69
2023-05-10T15:53:56.481Z,100444.66
2023-05-10T15:56:31.436Z,100442.28
2023-05-10T15:58:58.590Z,100438.97
2023-05-10T16:01:26.153Z,100444.59
2023-05-10T16:03:53.319Z,100443.94
2023-05-10T16:06:20.497Z,100441.84
2023-05-10T16:08:47.722Z,100441.38
2023-05-10T16:11:14.775Z,100429.91
2023-05-10T16:13:41.833Z,100444.50
2023-05-10T16:16:09.387Z,100439.91
2023-05-10T16:18:36.910Z,100432.34
2023-05-10T16:21:04.468Z,100448.38
2023-05-10T16:23:31.671Z,100443.69
2023-05-10T16:25:58.869Z,100419.44
2023-05-10T16:28:26.091Z,100434.97
2023-05-10T16:30:53.371Z,100439.00
2023-05-10T16:33:20.832Z,100437.66
2023-05-10T16:35:47.980Z,100414.81
2023-05-10T16:38:15.203Z,100431.56
2023-05-10T16:40:42.377Z,100427.97
2023-05-10T16:43:09.555Z,100440.03
2023-05-10T16:45:36.771Z,100437.44
2023-05-10T16:48:04.104Z,100438.19
2023-05-10T16:50:31.511Z,100440.34
2023-05-10T16:52:58.855Z,100431.91
2023-05-10T16:55:26.534Z,100437.78
2023-05-10T16:57:59.762Z,100440.72
2023-05-10T17:00:27.563Z,100439.44
2023-05-10T17:02:55.098Z,100443.28
2023-05-10T17:05:22.935Z,100441.44
2023-05-10T17:07:50.604Z,100438.88
2023-05-10T17:10:18.156Z,100448.19
2023-05-10T17:12:45.897Z,100444.88
2023-05-10T17:15:13.348Z,100446.88
2023-05-10T17:17:40.684Z,100444.59
2023-05-10T17:20:08.599Z,100447.81
2023-05-10T17:22:36.047Z,100446.72
2023-05-10T17:25:04.290Z,100456.88
2023-05-10T17:27:32.244Z,100455.41
2023-05-10T17:29:59.743Z,100446.69
2023-05-10T17:32:27.220Z,100448.34
2023-05-10T17:34:54.457Z,100457.97
2023-05-10T17:37:21.844Z,100446.94
2023-05-10T17:39:48.997Z,100465.03
2023-05-10T17:42:19.128Z,100469.88
2023-05-10T17:44:46.411Z,100471.91
2023-05-10T17:47:13.534Z,100471.63
2023-05-10T17:49:40.872Z,100471.34
2023-05-10T17:52:08.181Z,100476.09
2023-05-10T17:54:35.533Z,100475.34
2023-05-10T17:57:03.730Z,100479.88
2023-05-10T17:59:30.958Z,100477.25
2023-05-10T18:01:58.155Z,100465.66
2023-05-10T18:04:26.146Z,100476.63
2023-05-10T18:07:01.194Z,100461.75
2023-05-10T18:09:29.232Z,100473.34
2023-05-10T18:11:56.586Z,100468.88
2023-05-10T18:14:39.042Z,100476.34
2023-05-10T18:17:09.260Z,100476.19
2023-05-10T18:19:36.637Z,100468.88
2023-05-10T18:22:03.732Z,100475.13
2023-05-10T18:24:39.013Z,100471.13
2023-05-10T18:27:08.968Z,100479.56
2023-05-10T18:29:37.125Z,100477.63
2023-05-10T18:32:04.664Z,100462.78
2023-05-10T18:34:31.847Z,100472.09
2023-05-10T18:36:59.722Z,100473.09
2023-05-10T18:39:26.927Z,100474.41
2023-05-10T18:41:54.122Z,100471.75
2023-05-10T18:44:23.295Z,100468.72
2023-05-10T18:46:54.118Z,100468.72
2023-05-10T18:49:21.586Z,100471.38
2023-05-10T18:51:48.788Z,100468.72
2023-05-10T18:54:15.878Z,100469.94
2023-05-10T18:56:45.309Z,100466.13
2023-05-10T18:59:13.125Z,100474.25
2023-05-10T19:01:43.403Z,100467.50
2023-05-10T19:04:10.570Z,100471.44
2023-05-10T19:06:37.670Z,100475.09
2023-05-10T19:09:04.989Z,100474.16
2023-05-10T19:11:34.488Z,100471.50
2023-05-10T19:14:02.673Z,100478.47
2023-05-10T19:16:30.561Z,100469.38
2023-05-10T19:18:58.149Z,100480.19
2023-05-10T19:21:25.450Z,100460.31
2023-05-10T19:23:53.712Z,100469.88
2023-05-10T19:26:22.113Z,100483.50
2023-05-10T19:28:52.783Z,100469.28
2023-05-10T19:31:20.449Z,100478.84
2023-05-10T19:33:47.707Z,100481.22
2023-05-10T19:36:15.083Z,100475.91
2023-05-10T19:38:42.283Z,100475.16
2023-05-10T19:41:09.459Z,100482.25
2023-05-10T19:43:39.908Z,100478.59
2023-05-10T19:46:07.127Z,100479.28
2023-05-10T19:48:34.199Z,100475.16
2023-05-10T19:51:07.831Z,100481.31
2023-05-10T19:53:36.663Z,100468.19
2023-05-10T19:56:05.458Z,100479.66
2023-05-10T19:58:34.149Z,100477.63
2023-05-10T20:01:01.747Z,100488.25
2023-05-10T20:03:29.276Z,100488.66
2023-05-10T20:05:56.425Z,100487.38
2023-05-10T20:08:23.499Z,100485.00
2023-05-10T20:10:50.832Z,100486.34
2023-05-10T20:13:18.092Z,100485.34
2023-05-10T20:15:46.238Z,100481.84
2023-05-10T20:18:13.415Z,100479.38
2023-05-10T20:20:40.829Z,100480.69
2023-05-10T20:23:07.935Z,100483.97
2023-05-10T20:25:35.638Z,100484.34
2023-05-10T20:28:03.104Z,100481.72
2023-05-10T20:30:30.188Z,100493.63
2023-05-10T20:32:57.425Z,100489.97
2023-05-10T20:35:24.552Z,100487.84
2023-05-10T20:37:51.671Z,100482.34
2023-05-10T20:40:19.059Z,100489.97
2023-05-10T20:42:47.696Z,100491.16
2023-05-10T20:45:16.035Z,100501.31
2023-05-10T20:47:43.344Z,100495.34
2023-05-10T20:50:11.517Z,100494.66
2023-05-10T20:52:38.630Z,100491.41
2023-05-10T20:55:06.476Z,100492.09
2023-05-10T20:57:33.606Z,100491.09
2023-05-10T21:00:00.842Z,100488.09
2023-05-10T21:02:29.137Z,100482.44
2023-05-10T21:04:57.872Z,100492.38
2023-05-10T21:07:25.558Z,100490.72
2023-05-10T21:09:52.745Z,100472.50
2023-05-10T21:12:19.938Z,100494.06
2023-05-10T21:14:47.906Z,100487.75
2023-05-10T21:17:15.102Z,100492.06
2023-05-10T21:19:44.106Z,100486.09
2023-05-10T21:22:11.227Z,100487.75
2023-05-10T21:24:38.285Z,100481.44
2023-05-10T21:27:07.559Z,100483.44
2023-05-10T21:29:34.898Z,100489.41
2023-05-10T21:32:02.095Z,100491.41
2023-05-10T21:34:29.601Z,100492.59
2023-05-10T21:36:56.727Z,100488.75
2023-05-10T21:39:23.917Z,100491.09
2023-05-10T21:41:51.070Z,100487.41
2023-05-10T21:44:18.196Z,100489.94
2023-05-10T21:46:45.496Z,100480.81
2023-05-10T21:49:12.582Z,100489.09
2023-05-10T21:51:39.728Z,100478.81
2023-05-10T21:54:06.961Z,100488.81
2023-05-10T21:56:34.063Z,100462.28
2023-05-10T21:59:01.188Z,100497.25
2023-05-10T22:01:28.374Z,100481.50
2023-05-10T22:03:55.679Z,100493.09
2023-05-10T22:06:22.740Z,100486.63
2023-05-10T22:08:49.803Z,100488.47
2023-05-10T22:11:16.868Z,100468.56
2023-05-10T22:13:44.015Z,100489.78
2023-05-10T22:16:11.244Z,100491.41
2023-05-10T22:18:38.687Z,100491.41
2023-05-10T22:21:05.829Z,100492.56
2023-05-10T22:23:33.045Z,100490.91
2023-05-10T22:26:02.682Z,100492.09
2023-05-10T22:28:30.479Z,100486.28
2023-05-10T22:30:57.653Z,100485.31
2023-05-10T22:33:24.762Z,100475.53
2023-05-10T22:35:52.382Z,100485.50
2023-05-10T22:38:19.603Z,100489.47
2023-05-10T22:40:46.712Z,100489.31
2023-05-10T22:43:13.795Z,100486.13
2023-05-10T22:45:40.867Z,100492.94
2023-05-10T22:48:09.507Z,100489.97
2023-05-10T22:50:37.194Z,100471.59
2023-05-10T22:53:04.348Z,100463.78
2023-05-10T22:55:31.471Z,100487.81
2023-05-10T22:57:58.903Z,100480.69
2023-05-10T23:00:26.419Z,100484.16
2023-05-10T23:02:54.512Z,100483.66
2023-05-10T23:05:21.790Z,100488.44
2023-05-10T23:07:53.239Z,100482.47
2023-05-10T23:10:20.968Z,100482.16
2023-05-10T23:12:48.240Z,100479.66
2023-05-10T23:15:15.565Z,100485.47
2023-05-10T23:17:43.635Z,100468.88
2023-05-10T23:20:11.680Z,100490.63
2023-05-10T23:22:38.832Z,100485.13
2023-05-10T23:25:06.395Z,100479.19
2023-05-10T23:27:33.693Z,100480.34
2023-05-10T23:30:00.811Z,100477.22
2023-05-10T23:32:27.974Z,100491.78
2023-05-10T23:34:55.071Z,100477.22
2023-05-10T23:37:22.159Z,100487.16
2023-05-10T23:39:49.307Z,100481.00
2023-05-10T23:42:16.563Z,100474.56
2023-05-10T23:44:43.732Z,100496.44
2023-05-10T23:47:10.815Z,100493.44
2023-05-10T23:49:38.250Z,100489.44
2023-05-10T23:52:05.347Z,100490.28
2023-05-10T23:54:32.374Z,100481.50
2023-05-10T23:56:59.579Z,100490.09
2023-05-10T23:59:27.081Z,100490.63
